Pleasant Hall, Pennsylvania
Current Conditions -  °F | °C
As of 5:53 AM on Thursday 27 Nov 2014 (Local Time) from KHGR Reporting Station
Haze Haze  
Wind Chill: 29°   Ceiling: 2300
Heat Index: 33°   Visibility: 5mi
Dew Point: 30°   Wind: 5mph
Humidity: 89%   Direction: 60°ENE
Pressure: 30"   Gusts: NA
Location:  40.05°N, 77.65°W
Report Text: KHGR 271053Z AUTO 06004KT 5SM BR BKN023 OVC038 01/M01 A3000 RMK AO2 SLP175 T00061011 TSNO
Loading
Personal Weather Stations






























Interactive Weather Map New forecast layout! Learn more

10-Day Weather Forecast

Advertisements
Track Severe Weather on mobile